createdAt,value
2023-03-07T00:00:55.797Z,100.00
2023-03-07T00:06:03.769Z,100.00
2023-03-07T00:11:06.101Z,100.00
2023-03-07T00:16:16.910Z,100.00
2023-03-07T00:21:19.331Z,100.00
2023-03-07T00:26:21.770Z,100.00
2023-03-07T00:31:25.076Z,100.00
2023-03-07T00:36:27.820Z,100.00
2023-03-07T00:41:30.121Z,100.00
2023-03-07T00:46:33.328Z,100.00
2023-03-07T00:51:36.438Z,100.00
2023-03-07T00:56:38.734Z,100.00
2023-03-07T01:01:41.184Z,100.00
2023-03-07T01:06:53.508Z,100.00
2023-03-07T01:11:56.119Z,100.00
2023-03-07T01:16:58.859Z,100.00
2023-03-07T01:22:02.947Z,100.00
2023-03-07T01:27:06.151Z,100.00
2023-03-07T01:32:08.770Z,100.00
2023-03-07T01:37:11.576Z,100.00
2023-03-07T01:42:14.533Z,100.00
2023-03-07T01:47:17.196Z,100.00
2023-03-07T01:52:29.562Z,100.00
2023-03-07T01:57:33.252Z,100.00
2023-03-07T02:02:35.674Z,100.00
2023-03-07T02:07:38.195Z,100.00
2023-03-07T02:12:40.640Z,100.00
2023-03-07T02:17:47.998Z,100.00
2023-03-07T02:22:51.173Z,100.00
2023-03-07T02:27:54.040Z,100.00
2023-03-07T02:32:57.249Z,100.00
2023-03-07T02:37:59.673Z,100.00
2023-03-07T02:43:04.289Z,100.00
2023-03-07T02:48:07.496Z,100.00
2023-03-07T02:53:09.799Z,100.00
2023-03-07T02:58:12.756Z,100.00
2023-03-07T03:03:15.474Z,100.00
2023-03-07T03:08:18.193Z,100.00
2023-03-07T03:13:21.598Z,100.00
2023-03-07T03:18:33.921Z,100.00
2023-03-07T03:23:36.317Z,100.00
2023-03-07T03:28:39.456Z,100.00
2023-03-07T03:33:42.169Z,100.00
2023-03-07T03:38:44.658Z,100.00
2023-03-07T03:43:46.951Z,100.00
2023-03-07T03:48:50.117Z,100.00
2023-03-07T03:53:52.537Z,100.00
2023-03-07T03:58:56.232Z,100.00
2023-03-07T04:03:58.521Z,100.00
2023-03-07T04:09:00.854Z,100.00
2023-03-07T04:14:03.175Z,100.00
2023-03-07T04:19:06.332Z,100.00
2023-03-07T04:24:09.550Z,100.00
2023-03-07T04:29:11.932Z,100.00
2023-03-07T04:34:15.094Z,100.00
2023-03-07T04:39:17.532Z,100.00
2023-03-07T04:44:21.191Z,100.00
2023-03-07T04:49:23.934Z,100.00
2023-03-07T04:54:26.696Z,100.00
2023-03-07T04:59:29.106Z,100.00
2023-03-07T05:04:31.995Z,100.00
2023-03-07T05:09:34.323Z,100.00
2023-03-07T05:14:36.727Z,100.00
2023-03-07T05:19:39.075Z,100.00
2023-03-07T05:24:41.893Z,100.00
2023-03-07T05:29:44.547Z,100.00
2023-03-07T05:34:48.381Z,100.00
2023-03-07T05:39:50.653Z,100.00
2023-03-07T05:44:53.746Z,100.00
2023-03-07T05:49:56.088Z,100.00
2023-03-07T05:54:58.735Z,100.00
2023-03-07T06:00:01.445Z,100.00
2023-03-07T06:05:04.965Z,100.00
2023-03-07T06:10:07.683Z,100.00
2023-03-07T06:15:10.838Z,100.00
2023-03-07T06:20:13.626Z,100.00
2023-03-07T06:25:16.945Z,100.00
2023-03-07T06:30:19.682Z,100.00
2023-03-07T06:35:22.100Z,100.00
2023-03-07T06:40:24.416Z,100.00
2023-03-07T06:45:27.565Z,100.00
2023-03-07T06:50:35.361Z,100.00
2023-03-07T06:55:38.115Z,100.00
2023-03-07T07:00:41.205Z,100.00
2023-03-07T07:05:43.583Z,100.00
2023-03-07T07:10:45.920Z,100.00
2023-03-07T07:15:48.295Z,100.00
2023-03-07T07:20:50.638Z,100.00
2023-03-07T07:25:53.422Z,100.00
2023-03-07T07:30:55.780Z,100.00
2023-03-07T07:35:59.063Z,100.00
2023-03-07T07:41:02.317Z,100.00
2023-03-07T07:46:05.040Z,100.00
2023-03-07T07:51:07.652Z,100.00
2023-03-07T07:56:10.250Z,100.00
2023-03-07T08:01:12.728Z,100.00
2023-03-07T08:06:15.085Z,100.00
2023-03-07T08:11:18.209Z,100.00
2023-03-07T08:16:20.551Z,99.80
2023-03-07T08:21:23.730Z,99.15
2023-03-07T08:26:26.856Z,98.59
2023-03-07T08:31:29.213Z,97.44
2023-03-07T08:36:32.402Z,93.31
2023-03-07T08:41:34.739Z,90.42
2023-03-07T08:46:37.828Z,89.65
2023-03-07T08:51:40.267Z,87.62
2023-03-07T08:56:54.814Z,87.18
2023-03-07T09:01:57.910Z,84.90
2023-03-07T09:07:01.728Z,82.68
2023-03-07T09:12:04.896Z,80.27
2023-03-07T09:17:07.293Z,77.29
2023-03-07T09:22:10.032Z,79.51
2023-03-07T09:27:12.488Z,76.63
2023-03-07T09:32:15.102Z,76.74
2023-03-07T09:37:18.765Z,74.18
2023-03-07T09:42:21.187Z,72.19
2023-03-07T09:47:25.684Z,70.37
2023-03-07T09:52:28.167Z,70.98
2023-03-07T09:57:31.488Z,67.92
2023-03-07T10:02:33.895Z,65.88
2023-03-07T10:07:39.115Z,65.02
2023-03-07T10:12:44.646Z,65.17
2023-03-07T10:17:47.806Z,65.42
2023-03-07T10:22:50.701Z,62.90
2023-03-07T10:27:53.896Z,62.93
2023-03-07T10:32:58.150Z,63.77
2023-03-07T10:38:01.930Z,61.76
2023-03-07T10:43:05.987Z,60.17
2023-03-07T10:48:09.227Z,61.16
2023-03-07T10:53:12.631Z,63.43
2023-03-07T10:58:25.101Z,62.92
2023-03-07T11:03:27.747Z,63.17
2023-03-07T11:08:30.685Z,63.47
2023-03-07T11:13:34.375Z,62.61
2023-03-07T11:18:46.794Z,61.42
2023-03-07T11:23:49.143Z,59.37
2023-03-07T11:28:52.707Z,59.71
2023-03-07T11:33:59.776Z,61.34
2023-03-07T11:39:03.795Z,62.10
2023-03-07T11:44:06.940Z,62.61
2023-03-07T11:49:10.295Z,61.85
2023-03-07T11:54:14.294Z,62.59
2023-03-07T11:59:17.004Z,61.61
2023-03-07T12:04:20.108Z,62.00
2023-03-07T12:09:22.608Z,61.89
2023-03-07T12:14:25.874Z,60.08
2023-03-07T12:19:30.675Z,60.19
2023-03-07T12:24:36.531Z,61.52
2023-03-07T12:29:39.766Z,62.48
2023-03-07T12:34:42.220Z,60.98
2023-03-07T12:39:45.374Z,61.59
2023-03-07T12:44:47.707Z,61.51
2023-03-07T12:49:50.536Z,61.32
2023-03-07T12:54:52.961Z,61.73
2023-03-07T12:59:55.381Z,63.25
2023-03-07T13:04:58.024Z,62.89
2023-03-07T13:10:00.446Z,63.91
2023-03-07T13:15:03.639Z,63.46
2023-03-07T13:20:06.925Z,63.47
2023-03-07T13:25:10.094Z,63.01
2023-03-07T13:30:22.535Z,62.72
2023-03-07T13:35:25.102Z,60.77
2023-03-07T13:40:29.025Z,61.33
2023-03-07T13:45:32.235Z,61.27
2023-03-07T13:50:34.680Z,61.75
2023-03-07T13:55:37.050Z,60.88
2023-03-07T14:00:39.533Z,59.81
2023-03-07T14:05:42.802Z,58.32
2023-03-07T14:10:46.141Z,59.10
2023-03-07T14:15:49.351Z,59.57
2023-03-07T14:20:52.890Z,60.54
2023-03-07T14:25:55.801Z,59.55
2023-03-07T14:30:59.251Z,59.77
2023-03-07T14:36:02.517Z,59.75
2023-03-07T14:41:05.694Z,58.90
2023-03-07T14:46:08.497Z,58.25
2023-03-07T14:51:10.866Z,57.20
2023-03-07T14:56:14.116Z,56.34
2023-03-07T15:01:16.558Z,55.33
2023-03-07T15:06:18.945Z,53.24
2023-03-07T15:11:21.435Z,52.01
2023-03-07T15:16:25.113Z,51.49
2023-03-07T15:21:27.907Z,51.61
2023-03-07T15:26:32.473Z,52.49
2023-03-07T15:31:35.347Z,53.05
2023-03-07T15:36:38.244Z,53.24
2023-03-07T15:41:40.635Z,54.38
2023-03-07T15:46:43.025Z,56.08
2023-03-07T15:51:47.009Z,56.98
2023-03-07T15:56:49.494Z,57.61
2023-03-07T16:01:52.755Z,57.24
2023-03-07T16:06:55.577Z,58.31
2023-03-07T16:11:58.833Z,58.52
2023-03-07T16:17:01.195Z,59.36
2023-03-07T16:22:04.486Z,60.96
2023-03-07T16:27:07.914Z,62.34
2023-03-07T16:32:10.659Z,63.13
2023-03-07T16:37:13.317Z,64.11
2023-03-07T16:42:16.533Z,65.76
2023-03-07T16:47:18.923Z,67.39
2023-03-07T16:52:23.646Z,70.34
2023-03-07T16:57:26.894Z,73.19
2023-03-07T17:02:29.583Z,76.83
2023-03-07T17:07:31.947Z,80.87
2023-03-07T17:12:35.169Z,84.81
2023-03-07T17:17:37.641Z,86.99
2023-03-07T17:22:40.004Z,90.30
2023-03-07T17:27:42.628Z,91.12
2023-03-07T17:32:45.358Z,93.22
2023-03-07T17:37:48.567Z,94.74
2023-03-07T17:42:50.963Z,97.54
2023-03-07T17:47:54.232Z,99.15
2023-03-07T17:52:59.509Z,100.00
2023-03-07T17:58:02.382Z,100.00
2023-03-07T18:03:05.773Z,100.00
2023-03-07T18:08:09.711Z,100.00
2023-03-07T18:13:12.086Z,100.00
2023-03-07T18:18:16.229Z,100.00
2023-03-07T18:23:19.428Z,100.00
2023-03-07T18:28:22.621Z,100.00
2023-03-07T18:33:26.989Z,100.00
2023-03-07T18:38:30.169Z,100.00
2023-03-07T18:43:34.423Z,100.00
2023-03-07T18:48:36.912Z,100.00
2023-03-07T18:53:39.370Z,100.00
2023-03-07T18:58:42.804Z,100.00
2023-03-07T19:03:45.451Z,100.00
2023-03-07T19:08:48.369Z,100.00
2023-03-07T19:13:51.388Z,100.00
2023-03-07T19:18:53.966Z,100.00
2023-03-07T19:23:56.888Z,100.00
2023-03-07T19:29:03.707Z,100.00
2023-03-07T19:34:06.803Z,100.00
2023-03-07T19:39:11.257Z,100.00
2023-03-07T19:44:15.314Z,100.00
2023-03-07T19:49:23.253Z,100.00
2023-03-07T19:54:26.203Z,100.00
2023-03-07T19:59:32.853Z,100.00
2023-03-07T20:04:35.826Z,100.00
2023-03-07T20:09:38.350Z,100.00
2023-03-07T20:14:43.128Z,100.00
2023-03-07T20:19:45.898Z,100.00
2023-03-07T20:24:48.500Z,100.00
2023-03-07T20:29:51.912Z,100.00
2023-03-07T20:34:54.914Z,100.00
2023-03-07T20:39:57.506Z,99.71
2023-03-07T20:45:00.357Z,99.43
2023-03-07T20:50:02.987Z,99.36
2023-03-07T20:55:05.709Z,98.64
2023-03-07T21:00:19.163Z,97.95
2023-03-07T21:05:33.499Z,97.67
2023-03-07T21:10:37.526Z,95.42
2023-03-07T21:15:50.292Z,94.19
2023-03-07T21:20:53.552Z,95.14
2023-03-07T21:25:58.083Z,95.25
2023-03-07T21:31:01.941Z,96.36
2023-03-07T21:36:04.952Z,98.05
2023-03-07T21:41:09.264Z,97.89
2023-03-07T21:46:14.029Z,99.08
2023-03-07T21:51:16.688Z,99.99
2023-03-07T21:56:19.479Z,100.00
2023-03-07T22:01:24.935Z,100.00
2023-03-07T22:06:29.285Z,100.00
2023-03-07T22:11:32.786Z,100.00
2023-03-07T22:16:35.645Z,100.00
2023-03-07T22:21:41.550Z,100.00
2023-03-07T22:26:44.600Z,100.00
2023-03-07T22:31:47.587Z,100.00
2023-03-07T22:36:50.134Z,100.00
2023-03-07T22:41:53.842Z,99.47
2023-03-07T22:46:58.266Z,99.99
2023-03-07T22:52:01.520Z,100.00
2023-03-07T22:57:05.343Z,100.00
2023-03-07T23:02:08.006Z,100.00
2023-03-07T23:07:11.752Z,100.00
2023-03-07T23:12:14.297Z,100.00
2023-03-07T23:17:16.621Z,100.00
2023-03-07T23:22:19.292Z,100.00
2023-03-07T23:27:22.504Z,100.00
2023-03-07T23:32:24.957Z,100.00
2023-03-07T23:37:28.208Z,100.00
2023-03-07T23:42:30.690Z,100.00
2023-03-07T23:47:34.239Z,100.00
2023-03-07T23:52:39.090Z,100.00
2023-03-07T23:57:43.094Z,100.00
